Time;durP1;ratioP1;P1;durP2;ratioP2;P2;SDS_P1;SDS_P2;PMS_P1;PMS_P2;Temp;Humidity;BMP_temperature;BMP_pressure;BME280_temperature;BME280_humidity;BME280_pressure;Samples;Min_cycle;Max_cycle;Signal;HPM_P1;HPM_P2
2021/10/25 00:02:26;;;;;;;4.20;3.80;;;;;;;8.70;65.88;96183.94;6093533;23;20187;-81
2021/10/25 00:04:53;;;;;;;4.50;4.10;;;;;;;8.66;65.56;96183.44;6093020;23;20208;-80
2021/10/25 00:07:21;;;;;;;4.33;3.93;;;;;;;8.58;65.62;96185.97;6092284;23;20212;-81
2021/10/25 00:09:47;;;;;;;5.37;4.07;;;;;;;8.52;65.61;96183.97;6093388;23;20268;-82
2021/10/25 00:12:14;;;;;;;4.90;4.40;;;;;;;8.48;65.49;96187.78;6093070;23;20180;-81
2021/10/25 00:14:41;;;;;;;4.60;4.20;;;;;;;8.35;65.70;96190.75;6092893;23;20247;-81
2021/10/25 00:17:07;;;;;;;8.00;4.10;;;;;;;8.31;65.67;96190.19;6092938;23;20570;-80
2021/10/25 00:19:35;;;;;;;4.50;4.10;;;;;;;8.34;66.18;96199.38;6093349;23;20555;-81
2021/10/25 00:22:02;;;;;;;4.87;4.40;;;;;;;8.18;65.60;96204.34;6093206;23;20305;-80
2021/10/25 00:24:29;;;;;;;4.60;4.10;;;;;;;8.13;65.82;96203.97;6093214;23;20173;-81
2021/10/25 00:26:56;;;;;;;4.87;4.10;;;;;;;8.04;66.21;96189.47;6092623;23;20179;-81
2021/10/25 00:29:23;;;;;;;5.03;4.53;;;;;;;8.14;65.86;96190.19;6093163;23;20231;-80
2021/10/25 00:31:49;;;;;;;5.33;4.17;;;;;;;8.19;65.41;96183.69;6093014;23;20180;-81
2021/10/25 00:34:16;;;;;;;4.80;4.40;;;;;;;8.12;65.72;96187.78;6092776;23;20207;-80
2021/10/25 00:36:42;;;;;;;4.63;4.23;;;;;;;8.05;66.27;96189.34;6092676;23;20176;-81
2021/10/25 00:39:09;;;;;;;4.67;4.20;;;;;;;8.11;65.81;96183.59;6093159;23;20200;-81
2021/10/25 00:41:37;;;;;;;4.90;4.40;;;;;;;8.10;65.79;96183.75;6092781;23;20176;-81
2021/10/25 00:44:04;;;;;;;4.30;3.90;;;;;;;8.06;65.89;96175.56;6092914;23;20665;-80
2021/10/25 00:46:30;;;;;;;4.40;4.00;;;;;;;7.92;66.02;96174.28;6093019;23;20642;-81
2021/10/25 00:48:57;;;;;;;3.87;3.50;;;;;;;7.92;66.03;96176.03;6093059;23;20204;-81
2021/10/25 00:51:24;;;;;;;4.90;4.37;;;;;;;7.88;65.98;96174.75;6093241;23;20199;-81
2021/10/25 00:53:50;;;;;;;4.63;3.97;;;;;;;7.87;66.09;96173.13;6092807;23;20207;-81
2021/10/25 00:56:17;;;;;;;4.50;4.10;;;;;;;7.85;65.80;96169.91;6092867;23;20180;-80
2021/10/25 00:58:45;;;;;;;4.70;4.23;;;;;;;7.90;65.72;96173.63;6093020;23;20200;-81
2021/10/25 01:01:12;;;;;;;4.83;4.33;;;;;;;7.60;66.41;96179.88;6092959;23;20180;-81
2021/10/25 01:03:38;;;;;;;4.17;3.77;;;;;;;7.58;66.38;96176.66;6092488;23;20674;-80
2021/10/25 01:06:06;;;;;;;4.70;4.20;;;;;;;7.57;66.47;96174.25;6091983;23;20200;-81
2021/10/25 01:08:36;;;;;;;9.30;3.90;;;;;;;7.57;66.60;96175.03;6094074;23;20499;-80
2021/10/25 01:11:02;;;;;;;4.87;3.90;;;;;;;7.61;66.60;96180.69;6094543;23;20180;-81
2021/10/25 01:13:29;;;;;;;4.90;4.33;;;;;;;7.69;66.55;96183.38;6094061;23;20203;-81
2021/10/25 01:15:57;;;;;;;4.27;3.87;;;;;;;7.79;65.95;96181.53;6094613;23;20187;-81
2021/10/25 01:18:23;;;;;;;4.40;3.63;;;;;;;7.80;66.01;96183.16;6093682;23;20200;-80
2021/10/25 01:20:51;;;;;;;5.87;4.07;;;;;;;7.85;65.75;96177.59;6094236;23;20180;-80
2021/10/25 01:23:18;;;;;;;5.10;3.90;;;;;;;7.68;66.02;96171.50;6094364;23;20180;-80
2021/10/25 01:25:45;;;;;;;4.83;4.00;;;;;;;7.66;66.14;96172.59;6094145;23;20176;-81
2021/10/25 01:28:12;;;;;;;4.43;3.70;;;;;;;7.73;66.12;96174.41;6093596;23;20272;-80
2021/10/25 01:30:39;;;;;;;3.80;3.50;;;;;;;7.82;66.11;96175.31;6094298;23;20184;-80
2021/10/25 01:33:10;;;;;;;4.03;3.63;;;;;;;7.86;65.75;96169.75;6094588;23;20218;-80
2021/10/25 01:35:37;;;;;;;4.20;3.80;;;;;;;7.76;65.08;96169.00;6094176;23;20252;-80
2021/10/25 01:38:04;;;;;;;3.90;3.50;;;;;;;7.72;65.33;96167.66;6094070;23;20201;-80
2021/10/25 01:40:31;;;;;;;5.00;4.03;;;;;;;7.60;65.45;96163.72;6094455;23;20183;-81
2021/10/25 01:42:57;;;;;;;4.20;3.80;;;;;;;7.59;66.04;96167.22;6094243;23;20215;-81
2021/10/25 01:45:24;;;;;;;5.70;3.90;;;;;;;7.64;65.96;96159.91;6094230;23;20180;-81
2021/10/25 01:47:50;;;;;;;4.10;3.70;;;;;;;7.56;65.96;96159.81;6094484;23;20530;-81
2021/10/25 01:50:17;;;;;;;4.27;3.70;;;;;;;7.59;65.79;96151.84;6094323;23;20222;-81
2021/10/25 01:52:44;;;;;;;4.63;3.70;;;;;;;7.53;66.12;96165.22;6094249;23;20184;-81
2021/10/25 01:55:12;;;;;;;3.83;3.43;;;;;;;7.42;66.43;96163.66;6094804;23;20200;-81
2021/10/25 01:57:38;;;;;;;3.87;3.50;;;;;;;7.49;66.64;96163.91;6094530;23;20208;-81
2021/10/25 02:00:05;;;;;;;4.77;3.80;;;;;;;7.46;65.97;96157.31;6094887;23;20542;-81
2021/10/25 02:02:32;;;;;;;5.57;3.83;;;;;;;7.48;65.61;96157.19;6094445;23;20203;-81
2021/10/25 02:05:01;;;;;;;4.73;4.10;;;;;;;7.45;65.34;96149.78;6094256;23;20187;-81
2021/10/25 02:07:28;;;;;;;6.77;3.90;;;;;;;7.30;65.75;96140.97;6093156;23;20212;-81
2021/10/25 02:09:54;;;;;;;4.03;3.73;;;;;;;7.24;66.26;96150.81;6093116;23;20180;-81
2021/10/25 02:12:22;;;;;;;3.53;3.13;;;;;;;7.31;66.02;96150.25;6093305;23;20184;-80
2021/10/25 02:14:50;;;;;;;4.30;3.90;;;;;;;7.30;66.03;96143.53;6093795;23;20199;-81
2021/10/25 02:17:16;;;;;;;4.30;3.90;;;;;;;7.33;65.95;96144.03;6093371;23;20196;-81
2021/10/25 02:19:43;;;;;;;4.87;3.70;;;;;;;7.24;65.86;96148.25;6093616;23;20177;-81
2021/10/25 02:22:09;;;;;;;4.37;3.97;;;;;;;7.23;66.03;96144.06;6093805;23;20183;-81
2021/10/25 02:24:36;;;;;;;4.43;3.87;;;;;;;7.30;66.13;96141.75;6093750;23;20188;-81
2021/10/25 02:27:04;;;;;;;4.77;3.73;;;;;;;7.25;66.11;96136.25;6092675;23;20207;-81
2021/10/25 02:29:35;;;;;;;4.87;3.63;;;;;;;7.20;66.41;96138.44;6094143;23;20244;-81
2021/10/25 02:32:02;;;;;;;3.80;3.40;;;;;;;7.27;66.59;96132.59;6093699;23;20165;-81
2021/10/25 02:34:28;;;;;;;4.73;4.20;;;;;;;7.30;66.44;96135.84;6093449;23;20204;-80
2021/10/25 02:36:55;;;;;;;3.87;3.43;;;;;;;7.36;66.58;96130.94;6093329;23;20180;-81
2021/10/25 02:39:21;;;;;;;4.00;3.60;;;;;;;7.41;66.28;96133.88;6093937;23;20177;-81
2021/10/25 02:41:48;;;;;;;4.10;3.70;;;;;;;7.44;66.01;96133.59;6094075;23;20184;-81
2021/10/25 02:44:14;;;;;;;3.67;3.37;;;;;;;7.39;66.24;96135.78;6093470;23;20661;-81
2021/10/25 02:46:42;;;;;;;4.03;3.67;;;;;;;7.32;66.19;96134.72;6093532;23;20180;-80
2021/10/25 02:49:08;;;;;;;3.90;3.50;;;;;;;7.24;66.46;96138.00;6093689;23;20207;-81
2021/10/25 02:51:35;;;;;;;4.03;3.67;;;;;;;7.24;66.68;96137.19;6094571;23;20211;-82
2021/10/25 02:54:02;;;;;;;4.37;3.60;;;;;;;7.25;66.52;96134.50;6093843;23;20200;-81
2021/10/25 02:56:29;;;;;;;4.20;3.67;;;;;;;7.28;66.41;96138.53;6093798;23;20643;-81
2021/10/25 02:58:55;;;;;;;3.60;3.30;;;;;;;7.33;66.76;96138.91;6093334;23;20204;-82
2021/10/25 03:01:22;;;;;;;3.87;3.47;;;;;;;7.28;66.83;96129.09;6094170;23;20204;-80
2021/10/25 03:03:49;;;;;;;4.03;3.63;;;;;;;7.19;66.73;96136.81;6094030;23;20177;-81
2021/10/25 03:06:16;;;;;;;4.50;3.40;;;;;;;7.17;67.21;96133.59;6093084;23;20207;-81
2021/10/25 03:08:43;;;;;;;4.23;3.33;;;;;;;7.16;66.86;96137.09;6093606;23;20215;-81
2021/10/25 03:11:09;;;;;;;4.20;3.80;;;;;;;7.23;66.48;96140.72;6093660;23;20542;-81
2021/10/25 03:13:36;;;;;;;3.50;3.20;;;;;;;7.21;66.81;96134.91;6093479;23;20172;-81
2021/10/25 03:16:05;;;;;;;3.50;3.20;;;;;;;7.15;66.69;96136.28;6093160;23;20203;-81
2021/10/25 03:18:32;;;;;;;3.97;3.57;;;;;;;6.92;67.63;96140.19;6093346;23;20585;-80
2021/10/25 03:21:00;;;;;;;3.70;3.33;;;;;;;6.89;68.00;96140.44;6093424;23;20176;-80
2021/10/25 03:23:26;;;;;;;3.87;3.57;;;;;;;6.99;67.71;96142.97;6093325;23;20180;-81
2021/10/25 03:25:53;;;;;;;4.30;3.50;;;;;;;7.10;67.46;96141.03;6093174;23;20179;-81
2021/10/25 03:28:19;;;;;;;4.23;3.53;;;;;;;7.13;67.07;96148.41;6092435;23;20208;-81
2021/10/25 03:30:46;;;;;;;3.87;3.43;;;;;;;7.10;67.23;96141.03;6093323;23;20199;-80
2021/10/25 03:33:13;;;;;;;4.13;3.30;;;;;;;7.05;67.29;96139.84;6093562;23;20173;-81
2021/10/25 03:35:40;;;;;;;4.40;3.50;;;;;;;7.04;67.75;96145.91;6093497;23;20204;-80
2021/10/25 03:38:09;;;;;;;4.00;3.60;;;;;;;7.07;67.41;96141.31;6092610;23;20207;-80
2021/10/25 03:40:37;;;;;;;6.27;3.37;;;;;;;7.09;67.69;96146.31;6093993;23;20176;-81
2021/10/25 03:43:03;;;;;;;3.40;3.10;;;;;;;7.11;66.95;96140.09;6092939;23;20207;-80
2021/10/25 03:45:34;;;;;;;4.33;3.40;;;;;;;7.04;67.67;96135.66;6093596;23;20179;-81
2021/10/25 03:48:05;;;;;;;4.57;3.40;;;;;;;7.07;67.31;96145.63;6093099;23;20196;-80
2021/10/25 03:50:34;;;;;;;3.90;3.50;;;;;;;7.10;67.38;96142.81;6093221;23;20606;-81
2021/10/25 03:53:05;;;;;;;3.80;3.40;;;;;;;7.22;67.07;96141.66;6093212;23;20180;-80
2021/10/25 03:55:38;;;;;;;3.40;3.10;;;;;;;7.21;66.79;96143.41;6093618;23;20184;-80
2021/10/25 03:58:36;;;;;;;3.40;3.10;;;;;;;7.28;66.44;96141.09;6093127;23;20507;-80
2021/10/25 04:01:19;;;;;;;3.13;2.83;;;;;;;7.39;66.03;96143.47;6093637;23;20166;-80
2021/10/25 04:26:15;;;;;;;3.20;2.90;;;;;;;6.94;67.70;96125.44;6092792;23;20622;-82
2021/10/25 04:28:44;;;;;;;3.93;3.03;;;;;;;6.99;67.74;96120.72;6092259;23;20290;-82
2021/10/25 04:31:11;;;;;;;3.10;2.57;;;;;;;7.01;67.40;96118.84;6092638;23;20223;-81
2021/10/25 04:33:37;;;;;;;3.10;2.80;;;;;;;7.12;67.50;96122.97;6092718;23;20232;-81
2021/10/25 04:36:04;;;;;;;3.80;2.67;;;;;;;7.12;67.08;96118.63;6092985;23;20235;-81
2021/10/25 04:38:30;;;;;;;3.27;2.90;;;;;;;7.17;66.85;96128.47;6092632;23;20203;-81
2021/10/25 04:40:57;;;;;;;2.90;2.60;;;;;;;7.05;66.87;96120.16;6088099;23;20177;-80
2021/10/25 04:43:24;;;;;;;3.33;2.73;;;;;;;6.98;67.17;96121.66;6092740;23;20172;-81
2021/10/25 04:45:52;;;;;;;4.23;2.70;;;;;;;6.98;67.13;96121.66;6094266;23;20172;-81
2021/10/25 04:48:19;;;;;;;3.57;3.20;;;;;;;6.93;67.03;96119.53;6094366;23;20207;-81
2021/10/25 04:50:45;;;;;;;3.80;3.30;;;;;;;6.96;67.21;96115.88;6078337;23;20517;-86
2021/10/25 04:53:12;;;;;;;3.20;2.90;;;;;;;6.93;67.23;96116.16;6069677;23;20662;-85
2021/10/25 04:55:38;;;;;;;4.63;3.30;;;;;;;6.94;67.21;96121.16;6069811;23;20534;-85
2021/10/25 04:58:05;;;;;;;3.03;2.70;;;;;;;6.87;67.65;96120.09;6067254;23;20181;-86
2021/10/25 05:00:31;;;;;;;3.20;2.90;;;;;;;6.96;67.27;96113.31;6080601;23;20200;-85
2021/10/25 05:03:00;;;;;;;3.50;3.20;;;;;;;6.96;67.31;96113.31;6098551;23;20189;-85
2021/10/25 05:05:28;;;;;;;3.03;2.73;;;;;;;7.00;67.12;96117.22;6098268;23;20264;-85
2021/10/25 05:07:54;;;;;;;4.40;3.10;;;;;;;7.04;67.10;96121.13;6097521;23;20208;-84
2021/10/25 05:10:23;;;;;;;6.13;3.10;;;;;;;7.08;66.61;96114.78;6098162;23;20212;-83
2021/10/25 05:12:50;;;;;;;4.00;3.20;;;;;;;7.07;66.31;96113.16;6098241;23;20343;-85
2021/10/25 05:15:17;;;;;;;3.23;2.70;;;;;;;7.02;66.47;96115.31;6098309;23;20211;-83
2021/10/25 05:17:43;;;;;;;4.03;2.70;;;;;;;7.00;66.10;96113.84;6098882;23;20180;-82
2021/10/25 05:20:12;;;;;;;5.97;3.10;;;;;;;6.81;67.15;96118.09;6099276;23;20210;-86
2021/10/25 05:22:38;;;;;;;4.73;2.83;;;;;;;6.77;67.27;96109.09;6099345;23;20190;-80
2021/10/25 05:25:05;;;;;;;4.07;3.10;;;;;;;6.83;67.17;96116.22;6098031;23;20176;-85
2021/10/25 05:27:32;;;;;;;3.70;3.07;;;;;;;6.82;66.92;96117.16;6098624;23;20182;-84
2021/10/25 05:29:58;;;;;;;3.10;2.70;;;;;;;6.83;66.67;96113.66;6098133;23;20711;-85
2021/10/25 05:32:25;;;;;;;3.00;2.63;;;;;;;6.79;67.36;96121.75;6098383;23;20186;-84
2021/10/25 05:34:54;;;;;;;3.50;2.77;;;;;;;6.82;66.96;96118.91;6097639;23;20204;-85
2021/10/25 05:37:22;;;;;;;3.93;2.70;;;;;;;6.87;67.31;96115.00;6098525;23;20184;-87
2021/10/25 05:39:49;;;;;;;3.10;2.70;;;;;;;6.87;67.48;96114.19;6098406;23;20538;-86
2021/10/25 05:42:15;;;;;;;4.60;2.93;;;;;;;6.84;67.96;96114.47;6099431;23;20184;-83
2021/10/25 05:44:42;;;;;;;4.50;3.90;;;;;;;6.80;67.76;96119.03;6099028;23;20176;-85
2021/10/25 05:47:08;;;;;;;15.93;11.20;;;;;;;6.74;68.88;96118.78;6098299;23;20223;-85
2021/10/25 05:49:35;;;;;;;6.43;4.63;;;;;;;6.79;68.02;96119.19;6099591;23;20188;-85
2021/10/25 05:52:02;;;;;;;3.73;3.40;;;;;;;6.85;67.86;96111.75;6097987;23;20188;-83
2021/10/25 05:54:30;;;;;;;3.23;2.83;;;;;;;6.89;67.07;96113.09;6098256;23;20184;-84
2021/10/25 05:56:56;;;;;;;3.37;2.67;;;;;;;6.93;67.28;96106.72;6098435;23;20251;-84
2021/10/25 05:59:26;;;;;;;2.90;2.60;;;;;;;6.92;67.21;96104.34;6097999;23;20194;-85
2021/10/25 06:01:58;;;;;;;3.00;2.70;;;;;;;6.74;67.54;96096.56;6097835;23;20200;-85
2021/10/25 06:04:25;;;;;;;3.70;2.83;;;;;;;6.65;68.44;96101.72;6097166;23;20164;-85
2021/10/25 06:06:52;;;;;;;4.53;2.97;;;;;;;6.50;69.19;96107.28;6096765;23;20267;-86
2021/10/25 06:09:19;;;;;;;3.53;3.10;;;;;;;6.51;69.06;96108.09;6097928;23;20191;-86
2021/10/25 06:11:47;;;;;;;5.80;3.20;;;;;;;6.65;68.51;96109.41;6099020;23;20255;-84
2021/10/25 06:14:15;;;;;;;3.73;3.00;;;;;;;6.71;68.44;96111.41;6098477;23;20180;-86
2021/10/25 06:16:42;;;;;;;5.17;3.30;;;;;;;6.76;68.16;96111.78;6098203;23;20251;-85
2021/10/25 06:19:12;;;;;;;5.80;3.40;;;;;;;6.76;68.41;96112.59;6098857;23;20180;-85
2021/10/25 06:21:40;;;;;;;6.77;3.20;;;;;;;6.87;68.08;96109.88;6098627;23;20196;-82
2021/10/25 06:24:06;;;;;;;7.07;3.50;;;;;;;6.82;70.44;96112.03;6097605;23;20654;-85
2021/10/25 06:26:33;;;;;;;4.30;3.60;;;;;;;6.81;70.22;96114.72;6097894;23;20172;-85
2021/10/25 06:29:01;;;;;;;6.13;3.30;;;;;;;6.99;69.14;96117.38;6098438;23;20184;-85
2021/10/25 06:31:27;;;;;;;8.57;4.87;;;;;;;7.02;68.74;96117.09;6098954;23;20203;-86
2021/10/25 06:33:54;;;;;;;9.30;4.47;;;;;;;7.15;68.29;96127.78;6099162;23;20693;-84
2021/10/25 06:36:22;;;;;;;6.00;4.50;;;;;;;7.19;70.27;96119.69;6098370;23;20218;-85
2021/10/25 06:38:54;;;;;;;7.90;3.47;;;;;;;7.13;69.78;96117.69;6098521;23;20212;-81
2021/10/25 06:41:22;;;;;;;6.27;3.97;;;;;;;7.14;69.64;96121.06;6095553;23;20701;-82
2021/10/25 06:43:49;;;;;;;9.40;3.53;;;;;;;7.21;69.45;96127.25;6094999;23;20184;-82
2021/10/25 06:46:18;;;;;;;8.33;3.60;;;;;;;7.35;68.76;96123.38;6096180;23;20183;-84
2021/10/25 06:48:45;;;;;;;4.73;3.47;;;;;;;7.45;67.99;96122.41;6096422;23;20183;-82
2021/10/25 06:51:11;;;;;;;4.97;2.83;;;;;;;7.53;68.14;96130.16;6113062;23;20215;-83
2021/10/25 06:53:38;;;;;;;5.13;2.80;;;;;;;7.59;67.43;96118.53;6125019;23;20176;-82
2021/10/25 06:56:05;;;;;;;5.53;2.80;;;;;;;7.68;67.71;96127.13;6125684;23;20210;-84
2021/10/25 06:58:32;;;;;;;4.27;3.00;;;;;;;7.71;67.50;96126.81;6126200;23;20569;-85
2021/10/25 07:01:00;;;;;;;6.10;2.90;;;;;;;7.77;67.14;96124.47;6125758;23;20279;-84
2021/10/25 07:03:28;;;;;;;7.50;3.00;;;;;;;7.80;67.38;96131.06;6125921;23;20176;-81
2021/10/25 07:05:58;;;;;;;4.70;2.80;;;;;;;7.87;67.11;96132.13;6124526;23;20207;-84
2021/10/25 07:08:27;;;;;;;5.40;2.30;;;;;;;8.00;66.84;96129.97;6125487;23;20235;-85
2021/10/25 07:10:54;;;;;;;5.40;2.47;;;;;;;8.11;66.27;96139.19;6124887;23;20700;-85
2021/10/25 07:13:21;;;;;;;5.70;2.90;;;;;;;8.25;65.71;96134.38;6125398;23;20182;-82
2021/10/25 07:15:51;;;;;;;5.00;2.30;;;;;;;8.29;66.94;96138.22;6125023;23;20195;-83
2021/10/25 07:18:22;;;;;;;2.60;2.40;;;;;;;8.63;65.63;96140.94;6124709;23;20239;-86
2021/10/25 07:23:56;;;;;;;5.63;3.00;;;;;;;9.33;63.32;96133.91;6065792;23;20183;-84
2021/10/25 08:07:55;;;;;;;5.17;3.60;;;;;;;10.22;62.34;96141.00;6123303;23;20213;-82
2021/10/25 08:10:25;;;;;;;6.27;3.53;;;;;;;10.25;62.26;96138.13;6124483;23;20210;-84
2021/10/25 08:12:55;;;;;;;5.17;3.40;;;;;;;10.27;61.78;96149.06;6124462;23;20180;-84
2021/10/25 08:15:25;;;;;;;7.17;3.50;;;;;;;10.33;61.88;96140.69;6123801;23;20210;-83
2021/10/25 08:17:54;;;;;;;5.83;3.40;;;;;;;10.36;61.83;96149.88;6125697;23;20172;-82
2021/10/25 08:20:21;;;;;;;5.23;3.90;;;;;;;10.38;61.55;96143.59;6127252;23;20529;-83
2021/10/25 08:22:48;;;;;;;5.73;3.47;;;;;;;10.37;61.79;96149.72;6125804;23;20211;-84
2021/10/25 08:25:14;;;;;;;6.10;3.73;;;;;;;10.39;62.20;96152.13;6125547;23;20186;-85
2021/10/25 08:27:45;;;;;;;8.10;4.00;;;;;;;10.42;61.77;96145.84;6126020;23;20544;-82
2021/10/25 08:30:13;;;;;;;8.13;3.70;;;;;;;10.46;62.13;96157.41;6125615;23;20752;-82
2021/10/25 08:32:48;;;;;;;7.93;3.73;;;;;;;10.48;62.78;96158.06;6125900;23;20179;-84
2021/10/25 08:35:48;;;;;;;7.30;4.00;;;;;;;10.47;62.74;96146.16;6125519;23;20708;-82
2021/10/25 08:40:59;;;;;;;5.23;4.03;;;;;;;10.50;63.08;96138.13;6126238;23;20202;-84
2021/10/25 08:43:27;;;;;;;8.77;3.77;;;;;;;10.50;63.01;96141.50;6126688;23;20211;-84
2021/10/25 08:45:57;;;;;;;14.13;11.63;;;;;;;10.51;63.01;96150.84;6126674;23;20557;-83
2021/10/25 08:48:24;;;;;;;17.30;13.67;;;;;;;10.51;63.25;96150.84;6125813;23;20179;-83
2021/10/25 08:50:51;;;;;;;12.13;6.70;;;;;;;10.53;62.91;96143.75;6125352;23;20207;-83
2021/10/25 08:53:17;;;;;;;5.10;3.80;;;;;;;10.57;62.46;96141.66;6125867;23;20205;-82
2021/10/25 08:55:46;;;;;;;6.27;3.90;;;;;;;10.60;62.50;96141.31;6124805;23;20199;-83
2021/10/25 08:58:14;;;;;;;3.93;3.30;;;;;;;10.63;62.40;96141.78;6125574;23;20171;-82
2021/10/25 09:00:44;;;;;;;7.80;3.47;;;;;;;10.64;62.59;96140.03;6125993;23;20251;-83
2021/10/25 09:03:12;;;;;;;4.20;3.00;;;;;;;10.66;62.05;96138.91;6125804;23;20207;-84
2021/10/25 09:05:40;;;;;;;5.63;3.30;;;;;;;10.70;62.04;96131.66;6124952;23;20233;-84
2021/10/25 09:08:09;;;;;;;4.03;3.20;;;;;;;10.74;61.75;96132.94;6125567;23;20176;-83
2021/10/25 09:10:40;;;;;;;8.00;3.07;;;;;;;10.78;61.28;96136.78;6125919;23;20251;-82
2021/10/25 09:13:11;;;;;;;5.83;2.77;;;;;;;10.80;61.31;96132.28;6125475;23;20187;-83
2021/10/25 09:15:40;;;;;;;5.33;2.93;;;;;;;10.81;61.45;96133.06;6125966;23;20188;-83
2021/10/25 09:18:09;;;;;;;3.67;2.90;;;;;;;10.89;61.41;96133.06;6124647;23;20175;-83
2021/10/25 09:20:47;;;;;;;2.50;2.30;;;;;;;11.00;60.93;96130.94;6125389;23;20196;-83
2021/10/25 09:23:16;;;;;;;3.67;2.70;;;;;;;11.17;60.91;96128.31;6124914;23;20214;-85
2021/10/25 09:25:43;;;;;;;5.13;2.77;;;;;;;11.28;61.21;96130.53;6125875;23;20262;-85
2021/10/25 09:28:17;;;;;;;4.13;2.63;;;;;;;11.31;60.89;96123.28;6124236;23;20230;-83
2021/10/25 09:30:48;;;;;;;2.60;2.27;;;;;;;11.38;60.62;96126.78;6125578;23;20286;-83
2021/10/25 09:33:21;;;;;;;3.67;2.70;;;;;;;11.54;60.01;96127.69;6125116;23;20637;-81
2021/10/25 09:35:53;;;;;;;4.90;2.70;;;;;;;11.59;60.22;96126.19;6125247;23;20234;-82
2021/10/25 09:38:25;;;;;;;4.50;2.80;;;;;;;11.52;59.85;96127.84;6126052;23;20164;-82
2021/10/25 09:41:18;;;;;;;5.17;2.50;;;;;;;11.58;59.25;96126.34;6125792;23;20206;-83
2021/10/25 09:49:10;;;;;;;5.40;3.33;;;;;;;11.69;59.50;96119.06;6124228;23;20172;-81
2021/10/25 09:51:38;;;;;;;4.57;3.00;;;;;;;11.81;59.58;96126.44;6124938;23;20203;-85
2021/10/25 09:54:05;;;;;;;3.50;3.20;;;;;;;11.88;59.52;96124.78;6125569;23;20180;-84
2021/10/25 09:56:34;;;;;;;5.17;3.40;;;;;;;11.94;59.08;96117.13;6124863;23;20711;-85
2021/10/25 09:59:17;;;;;;;5.73;3.63;;;;;;;11.91;59.05;96114.94;6125221;23;20223;-83
2021/10/25 10:01:44;;;;;;;3.93;3.40;;;;;;;11.95;58.78;96118.75;6125282;23;20195;-82
2021/10/25 10:04:12;;;;;;;4.83;3.70;;;;;;;11.89;58.71;96121.22;6125665;23;20179;-85
2021/10/25 10:06:39;;;;;;;5.40;3.90;;;;;;;11.87;58.25;96113.66;6124027;23;20203;-84
2021/10/25 10:09:07;;;;;;;4.60;3.90;;;;;;;11.95;57.90;96112.78;6125264;23;20175;-85
2021/10/25 10:11:34;;;;;;;6.60;4.27;;;;;;;12.08;57.66;96116.41;6124804;23;20199;-84
2021/10/25 10:14:02;;;;;;;4.67;4.20;;;;;;;12.10;57.37;96111.09;6124878;23;20179;-83
2021/10/25 10:16:29;;;;;;;4.37;3.50;;;;;;;12.18;56.72;96116.16;6124871;23;20202;-85
2021/10/25 10:19:02;;;;;;;4.43;3.80;;;;;;;12.19;56.29;96109.22;6124739;23;20267;-84
2021/10/25 10:21:30;;;;;;;4.03;3.40;;;;;;;12.24;56.34;96110.31;6125230;23;20201;-81
2021/10/25 10:24:03;;;;;;;6.20;4.60;;;;;;;12.21;56.29;96102.13;6124771;23;20187;-83
2021/10/25 10:26:32;;;;;;;6.87;4.27;;;;;;;12.24;54.58;96105.16;6125266;23;20619;-85
2021/10/25 10:29:09;;;;;;;5.23;4.40;;;;;;;12.30;54.80;96104.47;6124823;23;20246;-83
2021/10/25 10:31:36;;;;;;;4.37;3.90;;;;;;;12.40;55.40;96104.22;6124216;23;20517;-83
2021/10/25 10:34:11;;;;;;;6.63;4.10;;;;;;;12.47;55.51;96102.56;6125335;23;20179;-82
2021/10/25 10:36:50;;;;;;;5.20;4.70;;;;;;;12.53;55.31;96098.44;6125237;23;20230;-82
2021/10/25 10:39:17;;;;;;;5.23;4.27;;;;;;;12.62;55.71;96095.63;6124373;23;20167;-85
2021/10/25 10:41:45;;;;;;;5.40;4.57;;;;;;;12.68;56.28;96086.38;6125324;23;20195;-82
2021/10/25 10:44:14;;;;;;;4.70;4.07;;;;;;;12.74;56.09;96083.06;6125058;23;20242;-83
2021/10/25 10:46:43;;;;;;;8.57;4.70;;;;;;;12.71;55.75;96079.03;6124976;23;20183;-84
2021/10/25 10:49:21;;;;;;;5.33;4.50;;;;;;;12.60;55.60;96084.66;6124675;23;20172;-83
2021/10/25 10:52:11;;;;;;;6.70;5.20;;;;;;;12.64;56.28;96074.78;6137044;23;20238;-81
2021/10/25 10:54:46;;;;;;;14.43;12.03;;;;;;;12.74;56.83;96081.28;6156491;23;20163;-81
2021/10/25 10:57:26;;;;;;;9.73;7.17;;;;;;;12.76;56.19;96075.94;6155217;23;20256;-81
2021/10/25 10:59:59;;;;;;;8.00;5.47;;;;;;;12.80;55.79;96080.59;6154608;23;20238;-82
2021/10/25 11:02:26;;;;;;;5.80;4.73;;;;;;;12.80;54.98;96080.59;6155095;23;20206;-81
2021/10/25 11:05:04;;;;;;;6.47;4.83;;;;;;;12.83;55.04;96071.66;6154900;23;20175;-82
2021/10/25 11:07:32;;;;;;;6.33;4.87;;;;;;;12.82;55.25;96069.25;6154518;23;20208;-81
2021/10/25 11:10:01;;;;;;;6.90;4.47;;;;;;;12.89;56.11;96067.59;6154213;23;20186;-81
2021/10/25 11:12:27;;;;;;;5.40;4.30;;;;;;;12.87;55.77;96067.75;6155719;23;20210;-81
2021/10/25 11:14:56;;;;;;;4.97;4.47;;;;;;;12.90;55.24;96066.56;6155709;23;20179;-80
2021/10/25 11:17:26;;;;;;;7.03;4.80;;;;;;;12.99;55.09;96068.09;6155456;23;20675;-81
2021/10/25 11:19:55;;;;;;;6.37;5.67;;;;;;;13.00;55.15;96065.34;6155684;23;20221;-81
2021/10/25 11:22:26;;;;;;;8.77;5.23;;;;;;;13.06;55.11;96062.03;6154679;23;20199;-81
2021/10/25 11:24:55;;;;;;;5.37;4.87;;;;;;;13.11;54.66;96057.13;6155370;23;20179;-81
2021/10/25 11:27:29;;;;;;;6.70;4.30;;;;;;;13.14;54.51;96050.78;6155144;23;20245;-81
2021/10/25 11:30:08;;;;;;;5.97;4.63;;;;;;;13.16;53.59;96048.84;6155413;23;20198;-81
2021/10/25 11:32:35;;;;;;;6.83;4.23;;;;;;;13.12;54.02;96050.97;6155039;23;20564;-80
2021/10/25 11:35:03;;;;;;;7.20;4.73;;;;;;;13.08;54.51;96051.53;6154861;23;20182;-82
2021/10/25 11:37:30;;;;;;;4.97;4.47;;;;;;;13.11;54.40;96048.56;6154525;23;20195;-82
2021/10/25 11:40:04;;;;;;;6.37;4.07;;;;;;;13.06;54.55;96045.72;6155146;23;20207;-81
2021/10/25 11:42:32;;;;;;;7.47;4.40;;;;;;;13.06;54.07;96043.94;6155002;23;20201;-81
2021/10/25 11:45:00;;;;;;;5.63;4.20;;;;;;;13.08;55.06;96038.59;6155991;23;20189;-82
2021/10/25 11:47:29;;;;;;;6.40;4.47;;;;;;;13.03;54.16;96039.13;6155271;23;20182;-82
2021/10/25 11:50:00;;;;;;;7.87;4.13;;;;;;;13.06;54.07;96053.47;6155128;23;20186;-81
2021/10/25 11:52:26;;;;;;;11.03;7.53;;;;;;;13.01;55.01;96051.44;6155869;23;20206;-81
2021/10/25 11:54:54;;;;;;;6.53;5.37;;;;;;;13.06;54.96;96045.72;6156199;23;20188;-83
2021/10/25 11:57:23;;;;;;;4.70;3.97;;;;;;;13.09;55.31;96035.81;6155032;23;20202;-82
2021/10/25 11:59:59;;;;;;;4.50;4.10;;;;;;;13.11;55.41;96033.84;6155821;23;20179;-82
2021/10/25 12:02:26;;;;;;;5.57;4.20;;;;;;;13.12;55.32;96027.69;6155034;23;20531;-82
2021/10/25 12:04:53;;;;;;;4.13;3.73;;;;;;;13.13;55.19;96036.25;6155016;23;20632;-81
2021/10/25 12:07:20;;;;;;;3.73;3.43;;;;;;;13.10;54.26;96032.25;6154519;23;20214;-82
2021/10/25 12:09:46;;;;;;;4.63;3.90;;;;;;;13.06;53.70;96036.19;6154852;23;20178;-80
2021/10/25 12:12:15;;;;;;;4.70;3.80;;;;;;;13.08;53.39;96031.63;6154796;23;20278;-81
2021/10/25 12:14:45;;;;;;;7.13;4.37;;;;;;;13.10;53.10;96021.91;6154433;23;20179;-80
2021/10/25 12:17:17;;;;;;;4.30;3.60;;;;;;;13.07;53.10;96019.69;6154603;23;20198;-81
2021/10/25 12:19:45;;;;;;;5.40;3.73;;;;;;;13.04;53.58;96020.06;6154949;23;20485;-80
2021/10/25 12:22:13;;;;;;;7.30;3.60;;;;;;;13.04;53.68;96021.84;6153366;23;20205;-81
2021/10/25 12:24:41;;;;;;;4.50;3.63;;;;;;;13.06;53.67;96014.72;6154096;23;20178;-82
2021/10/25 12:27:13;;;;;;;4.47;3.63;;;;;;;13.06;54.48;96014.72;6153414;23;20179;-79
2021/10/25 12:29:39;;;;;;;12.40;11.10;;;;;;;13.09;54.45;96009.16;6154831;23;20163;-81
2021/10/25 12:32:11;;;;;;;9.70;6.50;;;;;;;13.07;53.66;96003.38;6154987;23;20691;-80
2021/10/25 12:34:52;;;;;;;7.53;4.00;;;;;;;13.03;54.28;96010.69;6154457;23;20174;-81
2021/10/25 12:37:21;;;;;;;4.43;4.03;;;;;;;13.05;54.77;96013.91;6154331;23;20198;-81
2021/10/25 12:39:48;;;;;;;9.73;4.27;;;;;;;13.04;55.36;96003.75;6154539;23;20179;-82
2021/10/25 12:42:14;;;;;;;5.87;4.07;;;;;;;13.03;55.64;96007.31;6154362;23;20572;-81
2021/10/25 12:44:47;;;;;;;5.87;4.30;;;;;;;13.04;55.80;96014.09;6153966;23;20174;-80
2021/10/25 12:47:19;;;;;;;6.47;4.37;;;;;;;13.02;55.47;96021.22;6153738;23;20163;-81
2021/10/25 12:49:46;;;;;;;5.73;4.47;;;;;;;13.01;56.28;96010.06;6158112;23;20163;-81
2021/10/25 12:52:14;;;;;;;4.83;4.27;;;;;;;13.03;55.06;96010.69;6158400;23;20214;-82
2021/10/25 12:54:42;;;;;;;4.83;4.20;;;;;;;13.06;55.80;96001.78;6159181;23;20179;-83
2021/10/25 12:57:20;;;;;;;6.40;4.90;;;;;;;13.09;56.61;96001.38;6158396;23;20206;-82
2021/10/25 13:00:05;;;;;;;9.80;5.97;;;;;;;13.11;57.06;96010.56;6159281;23;20620;-83
2021/10/25 13:02:39;;;;;;;8.70;6.33;;;;;;;13.12;56.44;96001.03;6159670;23;20205;-81